Time;durP1;ratioP1;P1;durP2;ratioP2;P2;SDS_P1;SDS_P2;PMS_P1;PMS_P2;Temp;Humidity;BMP_temperature;BMP_pressure;BME280_temperature;BME280_humidity;BME280_pressure;Samples;Min_cycle;Max_cycle;Signal;HPM_P1;HPM_P2
2022/01/26 00:00:02;;;;;;;30.90;12.00;;;;;;;0.34;100.00;99805.66;4484968;31;20540;-72
2022/01/26 00:05:44;;;;;;;29.23;13.98;;;;;;;0.32;100.00;99796.31;4485014;31;20151;-72
2022/01/26 00:06:17;;;;;;;27.05;11.85;;;;;;;0.34;100.00;99803.09;4485136;31;20205;-72
2022/01/26 00:08:30;;;;;;;30.08;10.63;;;;;;;0.37;100.00;99809.06;4484046;31;20084;-72
2022/01/26 00:10:58;;;;;;;34.53;12.00;;;;;;;0.32;100.00;99798.91;4485128;31;20523;-72
2022/01/26 00:13:25;;;;;;;22.00;9.57;;;;;;;0.35;100.00;99806.53;4485001;31;20115;-72
2022/01/26 00:15:54;;;;;;;28.23;12.02;;;;;;;0.38;100.00;99806.44;4485086;31;20115;-72
2022/01/26 00:18:23;;;;;;;28.77;11.77;;;;;;;0.37;100.00;99812.47;4485046;31;20102;-72
2022/01/26 00:20:57;;;;;;;35.30;11.68;;;;;;;0.35;100.00;99814.25;4484744;31;20080;-72
2022/01/26 00:23:51;;;;;;;31.65;12.60;;;;;;;0.37;100.00;99825.34;4485225;31;20179;-72
2022/01/26 00:40:07;;;;;;;26.48;9.93;;;;;;;0.24;100.00;99806.00;4484758;31;20139;-72
2022/01/26 00:42:38;;;;;;;29.92;10.00;;;;;;;0.20;100.00;99807.84;4484775;31;20120;-72
2022/01/26 00:45:07;;;;;;;24.92;9.95;;;;;;;0.24;100.00;99811.16;4484841;31;20463;-72
2022/01/26 00:47:35;;;;;;;28.55;10.82;;;;;;;0.20;100.00;99814.69;4484572;31;20446;-72
2022/01/26 00:50:06;;;;;;;36.33;12.68;;;;;;;0.11;100.00;99808.09;4484699;31;20112;-72
2022/01/26 00:52:40;;;;;;;36.10;13.88;;;;;;;0.08;100.00;99814.19;4484759;31;20107;-72
2022/01/26 00:55:09;;;;;;;31.55;12.32;;;;;;;0.00;100.00;99818.72;4484636;31;20092;-72
2022/01/26 00:57:38;;;;;;;33.22;13.20;;;;;;;0.09;100.00;99810.72;4484541;31;20152;-72
2022/01/26 01:00:08;;;;;;;31.25;13.18;;;;;;;0.01;100.00;99810.09;4484338;31;20153;-72
2022/01/26 01:02:35;;;;;;;36.40;12.95;;;;;;;-0.01;100.00;99807.56;4484370;31;20481;-72
2022/01/26 01:05:12;;;;;;;30.27;11.48;;;;;;;-0.09;100.00;99806.97;4483163;32;20586;-72
2022/01/26 01:07:41;;;;;;;31.27;12.10;;;;;;;-0.10;100.00;99809.56;4484575;31;20092;-72
2022/01/26 01:10:09;;;;;;;33.47;12.65;;;;;;;-0.08;100.00;99808.63;4470662;32;20093;-72
2022/01/26 01:12:41;;;;;;;25.80;10.32;;;;;;;-0.12;100.00;99801.03;4487238;31;20085;-72
2022/01/26 01:15:11;;;;;;;24.60;10.52;;;;;;;-0.16;100.00;99799.44;4489872;31;20096;-72
2022/01/26 01:17:43;;;;;;;27.83;10.95;;;;;;;-0.19;100.00;99808.94;4489557;31;20115;-72
2022/01/26 01:31:17;;;;;;;28.83;11.25;;;;;;;-0.07;100.00;99820.63;4455781;32;19973;-72
2022/01/26 01:33:47;;;;;;;31.27;12.43;;;;;;;-0.08;100.00;99816.34;4455458;32;20096;-72
2022/01/26 01:36:16;;;;;;;37.00;13.00;;;;;;;-0.02;100.00;99815.34;4455564;32;20140;-72
2022/01/26 01:38:44;;;;;;;30.10;11.20;;;;;;;-0.03;100.00;99814.50;4455609;32;20155;-72
2022/01/26 01:41:11;;;;;;;34.42;12.70;;;;;;;0.02;100.00;99822.09;4455414;32;20125;-72
2022/01/26 01:43:39;;;;;;;36.38;13.13;;;;;;;0.04;100.00;99817.72;4455676;32;20117;-72
2022/01/26 01:46:06;;;;;;;36.65;12.57;;;;;;;0.01;100.00;99817.81;4455441;32;20132;-72
2022/01/26 01:48:34;;;;;;;28.85;12.10;;;;;;;0.00;100.00;99813.59;4455275;32;20164;-72
2022/01/26 01:51:06;;;;;;;31.33;11.60;;;;;;;0.02;100.00;99816.94;4455559;32;20105;-72
2022/01/26 01:53:44;;;;;;;36.60;13.62;;;;;;;0.13;100.00;99817.47;4455327;32;20382;-72
2022/01/26 01:56:14;;;;;;;34.90;13.57;;;;;;;0.00;100.00;99811.00;4451994;32;104080;-72
2022/01/26 01:58:42;;;;;;;35.10;13.32;;;;;;;0.13;100.00;99820.03;4460798;32;20630;-72
2022/01/26 02:01:09;;;;;;;42.15;14.57;;;;;;;0.13;100.00;99809.72;4486207;32;20124;-72
2022/01/26 02:03:37;;;;;;;35.60;13.20;;;;;;;0.15;100.00;99813.13;4473649;32;20472;-72
2022/01/26 02:06:04;;;;;;;36.20;12.98;;;;;;;0.18;100.00;99812.16;4473067;32;20509;-72
2022/01/26 02:08:31;;;;;;;36.40;13.98;;;;;;;0.16;100.00;99812.22;4473134;32;20100;-72
2022/01/26 02:10:58;;;;;;;34.42;14.43;;;;;;;0.19;100.00;99802.72;4473251;32;20088;-72
2022/01/26 02:13:39;;;;;;;35.72;13.62;;;;;;;0.25;100.00;99808.53;4472958;32;20096;-72
2022/01/26 02:19:20;;;;;;;34.80;13.18;;;;;;;0.14;100.00;99803.69;4473195;32;20111;-72
2022/01/26 02:58:57;;;;;;;28.23;11.00;;;;;;;-0.32;100.00;99786.16;4405531;32;20108;-72
2022/01/26 03:00:53;;;;;;;31.35;11.98;;;;;;;-0.29;100.00;99783.50;4399154;32;20129;-72
2022/01/26 03:03:26;;;;;;;25.62;11.02;;;;;;;-0.26;100.00;99781.69;4405790;32;20094;-72
2022/01/26 03:06:02;;;;;;;33.38;12.15;;;;;;;-0.30;100.00;99785.22;4405857;32;20651;-72
2022/01/26 03:08:34;;;;;;;31.95;11.52;;;;;;;-0.19;100.00;99788.34;4412553;32;20560;-72
2022/01/26 03:11:08;;;;;;;30.12;10.65;;;;;;;-0.20;100.00;99775.50;4421029;32;20140;-72
2022/01/26 03:13:40;;;;;;;31.02;11.20;;;;;;;-0.20;100.00;99775.50;4421088;32;20102;-72
2022/01/26 03:16:26;;;;;;;31.48;11.73;;;;;;;-0.20;100.00;99773.78;4408725;32;20124;-72
2022/01/26 03:21:29;;;;;;;30.10;10.32;;;;;;;-0.12;100.00;99775.28;4420764;32;20102;-72
2022/01/26 03:29:42;;;;;;;39.13;13.70;;;;;;;-0.12;100.00;99773.56;4421062;32;20090;-72
2022/01/26 03:34:57;;;;;;;32.30;12.52;;;;;;;-0.15;100.00;99771.06;4483852;32;20096;-72
2022/01/26 03:37:32;;;;;;;35.10;12.57;;;;;;;0.00;100.00;99774.94;4485546;31;20100;-72
2022/01/26 03:39:59;;;;;;;27.60;10.90;;;;;;;0.09;100.00;99773.78;4485466;31;20094;-72
2022/01/26 03:42:26;;;;;;;32.45;11.63;;;;;;;0.06;100.00;99777.34;4485165;31;20168;-72
2022/01/26 03:44:53;;;;;;;36.67;12.18;;;;;;;-0.12;100.00;99781.28;4485274;31;20150;-72
2022/01/26 03:47:20;;;;;;;28.83;11.23;;;;;;;-0.03;100.00;99782.72;4485286;31;20080;-72
2022/01/26 03:49:48;;;;;;;31.90;12.00;;;;;;;-0.01;100.00;99775.81;4485233;31;20175;-72
2022/01/26 03:52:15;;;;;;;34.78;11.90;;;;;;;-0.01;100.00;99780.97;4485220;31;20175;-72
2022/01/26 03:54:42;;;;;;;35.17;12.98;;;;;;;0.04;100.00;99781.66;4485227;32;20096;-72
2022/01/26 03:57:09;;;;;;;30.77;11.77;;;;;;;0.14;100.00;99777.94;4485031;31;20088;-72
2022/01/26 03:59:36;;;;;;;33.90;12.40;;;;;;;0.13;100.00;99781.38;4484994;31;20150;-72
2022/01/26 04:02:04;;;;;;;34.80;12.80;;;;;;;-0.02;100.00;99780.09;4484842;31;20175;-72
2022/01/26 04:04:37;;;;;;;35.63;14.70;;;;;;;0.04;100.00;99784.25;4485261;31;20118;-72
2022/01/26 04:07:05;;;;;;;39.17;15.03;;;;;;;0.02;100.00;99778.31;4485350;31;20110;-72
2022/01/26 04:09:32;;;;;;;37.58;14.77;;;;;;;-0.03;100.00;99777.56;4485063;31;20088;-72
2022/01/26 04:12:00;;;;;;;33.05;13.25;;;;;;;0.05;100.00;99775.62;4485385;31;20438;-72
2022/01/26 04:14:28;;;;;;;30.30;12.77;;;;;;;0.02;100.00;99772.31;4485172;31;20119;-72
2022/01/26 04:16:56;;;;;;;30.48;12.60;;;;;;;0.06;100.00;99767.03;4484989;32;20104;-72
2022/01/26 04:19:24;;;;;;;29.17;11.93;;;;;;;0.08;100.00;99770.38;4484972;31;20135;-72
2022/01/26 04:22:47;;;;;;;28.55;11.57;;;;;;;0.09;100.00;99777.25;4484921;31;20442;-72
2022/01/26 04:24:48;;;;;;;31.35;11.43;;;;;;;0.02;100.00;99770.56;4484909;32;20101;-72
2022/01/26 04:27:34;;;;;;;32.00;11.60;;;;;;;-0.08;100.00;99772.56;4484990;31;20155;-72
2022/01/26 04:30:03;;;;;;;27.50;11.05;;;;;;;0.17;100.00;99769.28;4485166;31;20128;-72
2022/01/26 04:32:30;;;;;;;34.17;13.10;;;;;;;0.18;100.00;99770.94;4484857;31;20096;-72
2022/01/26 04:35:01;;;;;;;30.98;11.45;;;;;;;0.15;100.00;99774.47;4485040;32;20111;-72
2022/01/26 04:40:16;;;;;;;29.48;12.57;;;;;;;0.21;100.00;99768.25;4485051;31;20188;-72
2022/01/26 04:42:57;;;;;;;25.30;11.00;;;;;;;0.08;100.00;99765.22;4484809;31;20108;-72
2022/01/26 04:45:24;;;;;;;26.40;11.20;;;;;;;0.01;100.00;99768.88;4484914;31;20411;-72
2022/01/26 04:47:52;;;;;;;25.55;10.43;;;;;;;-0.05;100.00;99769.06;4483758;31;20118;-72
2022/01/26 04:50:19;;;;;;;28.17;10.82;;;;;;;-0.22;100.00;99764.41;4484818;31;20106;-72
2022/01/26 04:52:46;;;;;;;31.75;12.63;;;;;;;-0.25;100.00;99764.50;4484906;31;20769;-72
2022/01/26 04:55:14;;;;;;;24.30;11.70;;;;;;;-0.10;100.00;99763.22;4484510;31;20430;-72
2022/01/26 04:57:41;;;;;;;30.62;11.38;;;;;;;-0.11;100.00;99762.34;4484467;31;20454;-72
2022/01/26 05:00:14;;;;;;;29.67;10.57;;;;;;;-0.07;100.00;99763.97;4484147;31;20133;-72
2022/01/26 05:02:41;;;;;;;27.70;10.68;;;;;;;-0.10;100.00;99758.06;4484108;31;20589;-72
2022/01/26 05:05:09;;;;;;;25.88;11.00;;;;;;;-0.19;100.00;99760.00;4484529;31;20088;-72
2022/01/26 05:07:36;;;;;;;29.55;11.77;;;;;;;-0.27;100.00;99759.41;4484323;31;20138;-72
2022/01/26 05:10:04;;;;;;;31.92;11.60;;;;;;;-0.24;100.00;99753.31;4484472;31;20438;-72
2022/01/26 05:12:32;;;;;;;28.35;12.20;;;;;;;-0.29;100.00;99761.16;4484482;31;20119;-72
2022/01/26 05:15:00;;;;;;;29.25;11.52;;;;;;;-0.32;100.00;99756.09;4484490;31;20093;-72
2022/01/26 05:17:27;;;;;;;27.98;11.05;;;;;;;-0.34;100.00;99757.03;4484357;31;20168;-72
2022/01/26 05:19:57;;;;;;;29.50;11.68;;;;;;;-0.35;100.00;99753.59;4484333;31;20197;-72
2022/01/26 05:22:25;;;;;;;29.58;11.43;;;;;;;-0.36;100.00;99754.50;4484158;31;20152;-72
2022/01/26 05:24:53;;;;;;;28.95;11.30;;;;;;;-0.26;100.00;99755.06;4483092;32;20442;-72
2022/01/26 05:27:20;;;;;;;26.30;11.10;;;;;;;-0.23;100.00;99749.84;4483151;31;20088;-72
2022/01/26 05:29:47;;;;;;;29.00;10.65;;;;;;;-0.13;100.00;99751.25;4483675;31;20175;-72
2022/01/26 05:32:14;;;;;;;26.23;10.88;;;;;;;-0.07;100.00;99751.06;4482122;31;20123;-72
2022/01/26 05:34:41;;;;;;;27.45;11.57;;;;;;;-0.04;100.00;99757.87;4482291;31;20184;-72
2022/01/26 05:37:09;;;;;;;30.60;11.12;;;;;;;-0.02;100.00;99753.50;4482197;31;20104;-72
2022/01/26 05:39:38;;;;;;;32.92;12.30;;;;;;;0.01;100.00;99758.56;4482091;31;20114;-72
2022/01/26 05:42:07;;;;;;;29.83;11.65;;;;;;;0.04;100.00;99758.47;4482524;31;20105;-72
2022/01/26 05:44:35;;;;;;;29.85;11.57;;;;;;;0.02;100.00;99749.97;4483143;31;20126;-72
2022/01/26 05:47:04;;;;;;;30.80;11.98;;;;;;;-0.02;100.00;99754.34;4482958;31;20104;-72
2022/01/26 05:49:31;;;;;;;29.90;11.15;;;;;;;-0.01;100.00;99760.38;4483918;32;20150;-72
2022/01/26 05:51:58;;;;;;;28.62;12.57;;;;;;;-0.04;100.00;99755.31;4483878;31;20347;-72
2022/01/26 05:54:25;;;;;;;33.50;11.82;;;;;;;-0.03;100.00;99764.69;4483732;31;20123;-72
2022/01/26 05:56:52;;;;;;;26.77;11.02;;;;;;;-0.08;100.00;99766.56;4483042;31;20096;-72
2022/01/26 05:59:20;;;;;;;26.83;11.32;;;;;;;-0.08;100.00;99761.44;4483802;32;20123;-72
2022/01/26 06:01:48;;;;;;;29.37;11.93;;;;;;;-0.06;100.00;99760.50;4484351;31;20112;-72
2022/01/26 06:04:17;;;;;;;25.25;11.15;;;;;;;-0.02;100.00;99767.22;4482316;31;20148;-72
2022/01/26 06:06:45;;;;;;;26.45;11.48;;;;;;;0.14;100.00;99764.22;4483118;31;20096;-72
2022/01/26 06:09:12;;;;;;;34.42;11.95;;;;;;;0.13;100.00;99768.50;4492126;31;20103;-72
2022/01/26 06:11:39;;;;;;;28.98;12.30;;;;;;;0.05;100.00;99769.66;4478520;31;20535;-72
2022/01/26 06:14:06;;;;;;;29.23;10.77;;;;;;;0.12;100.00;99769.41;4480351;31;20143;-72
2022/01/26 06:16:33;;;;;;;24.85;10.70;;;;;;;0.20;100.00;99770.88;4475467;31;20191;-73
2022/01/26 06:19:01;;;;;;;27.58;11.88;;;;;;;0.19;100.00;99771.81;4473626;32;20445;-72
2022/01/26 06:21:28;;;;;;;24.52;11.77;;;;;;;0.21;100.00;99772.59;4476991;32;20108;-73
2022/01/26 06:23:55;;;;;;;28.05;11.48;;;;;;;0.13;100.00;99772.81;4475463;32;20088;-72
2022/01/26 06:26:22;;;;;;;29.17;12.15;;;;;;;0.23;100.00;99773.37;4479555;32;20142;-72
2022/01/26 06:28:50;;;;;;;29.33;12.75;;;;;;;0.22;100.00;99782.00;4477301;32;20092;-72
2022/01/26 06:31:18;;;;;;;28.10;11.50;;;;;;;0.29;100.00;99784.34;4476517;32;20128;-72
2022/01/26 06:33:47;;;;;;;27.37;11.60;;;;;;;0.36;100.00;99769.53;4476613;31;20116;-72
2022/01/26 06:36:16;;;;;;;27.80;11.98;;;;;;;0.31;100.00;99781.72;4478074;31;20164;-72
2022/01/26 06:38:46;;;;;;;26.75;11.70;;;;;;;0.31;100.00;99774.84;4477003;32;20097;-73
2022/01/26 06:41:15;;;;;;;26.87;11.35;;;;;;;0.34;100.00;99773.91;4474923;32;20463;-73
2022/01/26 06:43:52;;;;;;;26.62;11.55;;;;;;;0.36;100.00;99774.69;4472142;32;20100;-73
2022/01/26 06:46:26;;;;;;;27.05;11.07;;;;;;;0.34;100.00;99766.16;4477552;32;20461;-73
2022/01/26 06:49:28;;;;;;;23.87;11.15;;;;;;;0.45;100.00;99774.41;4480822;32;20517;-73
2022/01/26 06:51:46;;;;;;;21.83;10.82;;;;;;;0.44;100.00;99780.47;4477260;32;20100;-72
2022/01/26 06:54:13;;;;;;;24.42;10.30;;;;;;;0.36;100.00;99779.84;4484524;31;20089;-73
2022/01/26 06:56:40;;;;;;;23.40;9.57;;;;;;;0.29;100.00;99778.38;4481921;31;20213;-73
2022/01/26 06:59:08;;;;;;;24.85;10.23;;;;;;;0.43;100.00;99771.03;4485009;31;20507;-73
2022/01/26 07:01:35;;;;;;;25.80;10.32;;;;;;;0.49;100.00;99768.25;4483177;31;20168;-72
2022/01/26 07:04:02;;;;;;;19.50;9.95;;;;;;;0.50;100.00;99767.38;4484235;31;20167;-73
2022/01/26 07:06:29;;;;;;;16.90;8.20;;;;;;;0.59;100.00;99768.81;4484761;31;20104;-73
2022/01/26 07:08:56;;;;;;;25.25;9.90;;;;;;;0.53;100.00;99772.44;4474682;31;20096;-74
2022/01/26 07:11:24;;;;;;;23.40;9.63;;;;;;;0.62;100.00;99763.56;4481993;31;20176;-74
2022/01/26 07:13:53;;;;;;;26.08;10.40;;;;;;;0.65;100.00;99770.34;4483502;31;20112;-73
2022/01/26 07:21:52;;;;;;;20.83;8.13;;;;;;;0.79;100.00;99773.31;4484304;31;20108;-73
2022/01/26 07:24:20;;;;;;;23.20;8.20;;;;;;;0.85;99.84;99767.13;4480617;31;20576;-72
2022/01/26 07:26:52;;;;;;;18.23;7.80;;;;;;;0.87;99.75;99771.31;4475009;31;20118;-72
2022/01/26 07:29:22;;;;;;;19.12;8.52;;;;;;;0.87;99.60;99771.31;4481382;31;20480;-72
2022/01/26 07:31:51;;;;;;;20.70;8.68;;;;;;;0.85;99.65;99762.81;4484152;31;20100;-72
2022/01/26 07:34:23;;;;;;;24.48;9.77;;;;;;;0.92;99.39;99760.00;4477758;31;20449;-71
2022/01/26 07:36:59;;;;;;;19.25;7.35;;;;;;;0.91;99.40;99755.75;4482318;31;20145;-72
2022/01/26 07:39:49;;;;;;;17.33;7.12;;;;;;;0.99;98.33;99762.34;4482778;32;20088;-72
2022/01/26 07:42:16;;;;;;;17.50;6.82;;;;;;;1.05;97.87;99771.63;4482741;31;20097;-72
2022/01/26 07:44:44;;;;;;;19.45;8.35;;;;;;;1.12;97.96;99767.94;4484692;31;20588;-72
2022/01/26 07:47:11;;;;;;;18.48;8.00;;;;;;;1.15;97.29;99761.81;4490589;31;20128;-72
2022/01/26 07:49:39;;;;;;;20.77;7.82;;;;;;;1.23;97.00;99773.56;4490443;31;20084;-73
2022/01/26 07:52:06;;;;;;;19.85;8.18;;;;;;;1.34;96.16;99764.59;4482135;31;20111;-72
2022/01/26 07:54:34;;;;;;;18.95;7.70;;;;;;;1.32;96.04;99774.16;4477934;31;20516;-73
2022/01/26 07:57:01;;;;;;;15.43;7.30;;;;;;;1.37;95.77;99775.66;4483706;31;20098;-72
2022/01/26 07:59:28;;;;;;;21.85;8.85;;;;;;;1.37;95.95;99759.31;4484736;31;20152;-72
2022/01/26 08:01:56;;;;;;;14.20;7.35;;;;;;;1.37;95.58;99759.31;4482028;31;20154;-72
2022/01/26 08:04:23;;;;;;;20.73;8.07;;;;;;;1.41;95.31;99763.50;4479666;32;20165;-71
2022/01/26 08:06:51;;;;;;;16.27;6.40;;;;;;;1.49;94.78;99774.38;4485334;31;20100;-72
2022/01/26 08:09:18;;;;;;;14.07;6.60;;;;;;;1.46;94.25;99759.00;4482057;31;20088;-72
2022/01/26 08:11:45;;;;;;;18.37;6.37;;;;;;;1.45;94.18;99772.78;4481965;31;20844;-72
2022/01/26 08:14:12;;;;;;;18.15;8.18;;;;;;;1.47;94.08;99760.69;4479153;31;20561;-72
2022/01/26 08:16:40;;;;;;;16.12;6.82;;;;;;;1.44;94.36;99758.22;4484711;31;20164;-72
2022/01/26 08:19:08;;;;;;;15.02;6.85;;;;;;;1.38;94.18;99773.94;4483409;31;20164;-72
2022/01/26 08:21:35;;;;;;;17.15;5.95;;;;;;;1.33;94.51;99763.78;4478194;31;20104;-72
2022/01/26 08:24:11;;;;;;;10.85;5.62;;;;;;;1.35;94.47;99764.53;4482889;31;20235;-73
2022/01/26 08:26:43;;;;;;;15.35;6.10;;;;;;;1.31;94.35;99769.88;4480677;31;20530;-73
2022/01/26 08:29:22;;;;;;;13.95;6.18;;;;;;;1.37;93.98;99773.06;4484560;31;20103;-72
2022/01/26 08:31:49;;;;;;;19.25;6.75;;;;;;;1.43;93.51;99769.44;4483964;31;20786;-72
2022/01/26 08:34:17;;;;;;;19.17;8.23;;;;;;;1.50;93.47;99772.63;4484527;31;20599;-72
2022/01/26 08:36:44;;;;;;;15.05;6.65;;;;;;;1.52;93.04;99781.19;4481453;31;20216;-71
2022/01/26 08:39:14;;;;;;;14.98;7.45;;;;;;;1.62;92.79;99785.13;4475002;31;20201;-72
2022/01/26 08:41:43;;;;;;;18.33;7.78;;;;;;;1.73;92.08;99787.31;4479178;31;20108;-72
2022/01/26 08:44:10;;;;;;;15.02;6.80;;;;;;;1.75;91.37;99780.34;4481375;31;20123;-71
2022/01/26 08:46:37;;;;;;;15.57;7.03;;;;;;;1.76;91.06;99802.69;4482006;31;20149;-72
2022/01/26 08:49:06;;;;;;;15.05;6.15;;;;;;;1.77;91.16;99788.88;4481002;31;20561;-71
2022/01/26 08:51:34;;;;;;;20.35;7.82;;;;;;;1.92;90.47;99779.72;4478321;31;20141;-72
2022/01/26 08:54:01;;;;;;;21.92;7.82;;;;;;;2.10;89.87;99779.00;4482772;32;20104;-72
2022/01/26 08:56:29;;;;;;;12.35;5.15;;;;;;;2.07;89.47;99784.28;4482711;31;20495;-72
2022/01/26 08:58:56;;;;;;;17.33;6.95;;;;;;;2.13;89.01;99791.84;4483125;31;20092;-72
2022/01/26 09:01:23;;;;;;;16.60;6.75;;;;;;;2.24;88.64;99791.44;4478809;31;20123;-72
2022/01/26 09:03:51;;;;;;;17.25;6.78;;;;;;;2.30;88.30;99796.38;4480169;32;20457;-71
2022/01/26 09:06:19;;;;;;;17.23;7.78;;;;;;;2.48;87.97;99796.53;4487050;31;20155;-72
2022/01/26 09:08:51;;;;;;;32.10;12.07;;;;;;;2.52;87.03;99792.09;4476516;31;20138;-72
2022/01/26 09:11:22;;;;;;;194.15;36.25;;;;;;;2.51;87.63;99796.41;4483661;31;20100;-72
2022/01/26 09:13:59;;;;;;;72.43;16.00;;;;;;;2.86;86.03;99796.72;4482604;32;20118;-72
2022/01/26 09:16:28;;;;;;;31.05;10.00;;;;;;;2.86;85.08;99790.72;4482248;31;20156;-72
2022/01/26 09:19:02;;;;;;;20.08;8.90;;;;;;;2.96;84.70;99795.44;4483074;31;20597;-71
2022/01/26 09:21:29;;;;;;;18.77;7.72;;;;;;;3.14;83.98;99788.66;4481465;32;20122;-72
2022/01/26 09:23:57;;;;;;;13.30;6.72;;;;;;;3.09;83.08;99792.34;4478411;32;20446;-72
2022/01/26 09:26:24;;;;;;;17.40;8.65;;;;;;;2.98;83.84;99791.06;4481694;31;20096;-73
2022/01/26 09:28:51;;;;;;;13.35;6.85;;;;;;;2.98;83.82;99788.50;4481790;32;20093;-74
2022/01/26 09:31:20;;;;;;;18.37;7.43;;;;;;;2.79;84.45;99782.38;4481901;31;20104;-73
2022/01/26 09:33:47;;;;;;;17.45;6.53;;;;;;;2.81;85.01;99783.16;4484299;32;20160;-73
2022/01/26 09:36:14;;;;;;;14.48;6.47;;;;;;;2.74;85.20;99777.41;4483892;31;20123;-73
2022/01/26 09:38:41;;;;;;;13.95;6.07;;;;;;;2.58;85.64;99773.75;4482867;31;20119;-73
2022/01/26 09:41:09;;;;;;;15.57;6.90;;;;;;;2.53;86.13;99768.75;4482978;32;20842;-73
2022/01/26 09:43:36;;;;;;;13.20;6.00;;;;;;;2.48;86.77;99765.50;4482884;31;20122;-73
2022/01/26 09:46:03;;;;;;;13.88;6.15;;;;;;;2.45;86.47;99761.31;4483439;31;20099;-72
2022/01/26 09:48:33;;;;;;;12.88;4.93;;;;;;;2.57;86.87;99759.94;4483006;31;20113;-73
2022/01/26 09:51:01;;;;;;;15.90;6.25;;;;;;;2.62;85.95;99767.53;4475050;32;20124;-73
2022/01/26 09:53:30;;;;;;;13.18;6.20;;;;;;;2.46;86.50;99768.12;4478008;31;20205;-72
2022/01/26 09:55:58;;;;;;;11.52;5.47;;;;;;;2.33;86.98;99768.69;4481244;31;20101;-73
2022/01/26 09:58:26;;;;;;;15.15;7.15;;;;;;;2.42;87.09;99758.84;4480576;31;20513;-72
2022/01/26 10:00:58;;;;;;;17.20;6.15;;;;;;;2.55;86.03;99756.59;4478258;31;20143;-73
2022/01/26 10:03:30;;;;;;;15.50;6.95;;;;;;;2.64;85.70;99747.63;4475920;31;20163;-74
2022/01/26 10:05:58;;;;;;;16.52;7.57;;;;;;;2.34;86.61;99753.12;4480671;32;20457;-72
2022/01/26 10:19:03;;;;;;;13.38;5.93;;;;;;;2.72;85.65;99742.13;4481470;31;20097;-73
2022/01/26 10:21:31;;;;;;;10.60;5.05;;;;;;;2.79;85.15;99747.00;4490205;31;20100;-73
2022/01/26 10:24:07;;;;;;;14.05;5.75;;;;;;;2.93;83.49;99741.22;4473254;31;20421;-72
2022/01/26 10:26:34;;;;;;;13.30;5.78;;;;;;;2.96;83.54;99740.25;4472777;32;20115;-72
2022/01/26 10:29:03;;;;;;;14.65;5.93;;;;;;;2.92;83.39;99738.72;4472658;32;20161;-71
2022/01/26 10:31:42;;;;;;;17.40;6.95;;;;;;;2.79;84.02;99752.16;4481509;31;20680;-72
2022/01/26 10:34:22;;;;;;;15.98;7.30;;;;;;;2.83;84.38;99745.97;4493263;31;20134;-72
2022/01/26 10:36:58;;;;;;;15.13;6.00;;;;;;;2.89;84.15;99755.19;4487489;31;20084;-72
2022/01/26 10:39:34;;;;;;;15.10;6.47;;;;;;;3.07;82.89;99752.75;4485335;32;20153;-72
2022/01/26 10:42:06;;;;;;;15.15;6.90;;;;;;;3.10;82.70;99753.44;4481766;31;20358;-71
2022/01/26 10:44:40;;;;;;;16.95;7.40;;;;;;;3.12;82.18;99751.66;4479189;31;20143;-72
2022/01/26 10:47:08;;;;;;;16.40;6.25;;;;;;;3.15;82.17;99750.66;4481459;31;20092;-73
2022/01/26 10:52:29;;;;;;;12.18;5.12;;;;;;;3.17;82.01;99748.87;4483701;31;20155;-72
2022/01/26 10:54:58;;;;;;;18.33;7.97;;;;;;;3.06;81.52;99740.69;4484129;32;20108;-72
2022/01/26 10:57:25;;;;;;;13.82;7.28;;;;;;;3.16;81.89;99742.00;4483367;31;20122;-73
2022/01/26 10:59:53;;;;;;;16.02;6.75;;;;;;;3.46;80.47;99741.56;4486260;31;20152;-72
2022/01/26 11:02:25;;;;;;;15.43;7.25;;;;;;;3.28;80.71;99735.44;4479956;32;20956;-72
2022/01/26 11:04:52;;;;;;;14.32;5.97;;;;;;;3.13;81.03;99736.94;4485218;31;20092;-73
2022/01/26 11:07:33;;;;;;;14.35;6.05;;;;;;;3.09;81.34;99735.41;4485306;31;20092;-73
2022/01/26 11:10:06;;;;;;;15.65;6.50;;;;;;;3.04;81.85;99732.19;4476775;31;20588;-73
2022/01/26 11:12:35;;;;;;;16.25;6.00;;;;;;;3.03;81.79;99726.16;4499731;31;20118;-73
2022/01/26 11:15:10;;;;;;;14.63;5.90;;;;;;;3.01;82.00;99739.19;4497774;31;20130;-73
2022/01/26 11:17:43;;;;;;;16.10;7.07;;;;;;;2.91;82.48;99737.03;4484711;31;20121;-72
2022/01/26 11:20:34;;;;;;;12.50;6.20;;;;;;;2.92;82.98;99729.22;4479414;31;20122;-73
2022/01/26 11:23:04;;;;;;;14.00;6.28;;;;;;;3.09;82.44;99730.22;4469006;32;20165;-72
2022/01/26 11:25:44;;;;;;;13.68;6.47;;;;;;;3.10;81.89;99745.69;4497100;31;20095;-73
2022/01/26 11:28:16;;;;;;;18.67;6.47;;;;;;;2.96;82.87;99741.09;4480390;31;20100;-73
2022/01/26 11:30:48;;;;;;;16.08;6.20;;;;;;;2.77;83.51;99740.19;4479846;31;20824;-73
2022/01/26 11:33:22;;;;;;;15.25;7.60;;;;;;;2.68;83.98;99741.44;4485196;31;20131;-72
2022/01/26 11:35:51;;;;;;;17.03;7.00;;;;;;;2.71;84.42;99732.69;4478506;31;20088;-72
2022/01/26 11:39:13;;;;;;;14.85;6.53;;;;;;;2.72;83.97;99731.78;4478526;32;20111;-72
2022/01/26 11:47:02;;;;;;;15.63;6.45;;;;;;;2.93;82.57;99735.22;4485172;31;20127;-72
2022/01/26 11:49:37;;;;;;;12.98;6.03;;;;;;;3.27;84.64;99726.00;4494944;31;20182;-72
2022/01/26 11:52:05;;;;;;;14.15;6.00;;;;;;;3.19;81.80;99732.38;4495647;31;20108;-72
2022/01/26 11:54:49;;;;;;;17.50;6.18;;;;;;;3.11;81.46;99725.84;4496851;31;20932;-72
2022/01/26 11:57:18;;;;;;;14.27;6.00;;;;;;;3.16;82.05;99729.91;4482942;31;20096;-72
2022/01/26 11:59:59;;;;;;;14.87;5.80;;;;;;;3.17;81.40;99728.97;4485017;31;20159;-72
2022/01/26 12:05:20;;;;;;;23.42;9.80;;;;;;;3.04;81.21;99721.81;4484385;31;20154;-72
2022/01/26 12:07:55;;;;;;;28.15;11.75;;;;;;;2.97;81.47;99721.25;4483881;31;20092;-72
2022/01/26 12:10:32;;;;;;;25.10;12.32;;;;;;;3.12;80.82;99707.66;4482487;32;20115;-72
2022/01/26 12:13:06;;;;;;;234.95;47.08;;;;;;;3.25;80.72;99715.69;4483559;32;20979;-72
2022/01/26 12:15:45;;;;;;;25.60;9.30;;;;;;;3.16;80.87;99711.78;4482933;31;20200;-72
2022/01/26 12:45:25;;;;;;;16.25;6.03;;;;;;;3.01;81.98;99681.37;4469188;32;20099;-73
2022/01/26 12:47:55;;;;;;;30.10;9.50;;;;;;;3.10;82.29;99674.94;4479973;31;20197;-73
2022/01/26 12:50:23;;;;;;;33.92;8.80;;;;;;;3.12;81.96;99679.16;4496596;31;20092;-73
2022/01/26 12:52:53;;;;;;;10.20;5.40;;;;;;;3.01;81.91;99682.22;4482947;32;20149;-71
2022/01/26 12:55:29;;;;;;;13.40;5.25;;;;;;;3.04;82.25;99670.03;4484067;31;20114;-72
2022/01/26 12:57:56;;;;;;;14.00;5.50;;;;;;;3.11;82.02;99679.22;4484063;31;20587;-72
2022/01/26 13:00:25;;;;;;;12.93;5.70;;;;;;;3.20;81.08;99676.25;4481096;32;20497;-73
2022/01/26 13:02:52;;;;;;;12.63;5.12;;;;;;;3.16;80.98;99672.09;4484890;31;20096;-72
2022/01/26 13:05:26;;;;;;;18.58;6.18;;;;;;;3.11;81.19;99677.47;4481696;31;20101;-73
2022/01/26 13:08:04;;;;;;;11.23;4.93;;;;;;;3.07;81.19;99675.91;4480687;31;20125;-73
2022/01/26 13:10:32;;;;;;;11.00;4.57;;;;;;;3.12;81.19;99678.31;4473974;32;20084;-73
2022/01/26 13:13:20;;;;;;;15.55;5.90;;;;;;;3.04;80.60;99688.16;4479470;31;20787;-74
2022/01/26 13:15:56;;;;;;;17.77;7.47;;;;;;;3.05;80.93;99688.09;4481846;31;20106;-72
2022/01/26 13:18:44;;;;;;;20.90;8.60;;;;;;;3.09;81.19;99674.13;4481354;31;20493;-72
2022/01/26 13:21:39;;;;;;;13.52;5.57;;;;;;;3.06;81.07;99679.44;4480281;31;20092;-72
2022/01/26 13:24:29;;;;;;;11.43;5.43;;;;;;;2.97;81.09;99675.50;4475449;31;20092;-72
2022/01/26 13:39:58;;;;;;;10.25;4.65;;;;;;;3.17;80.90;99673.78;4484458;31;20096;-72
2022/01/26 13:50:19;;;;;;;17.42;5.95;;;;;;;2.98;80.70;99674.59;4483951;31;20221;-72
2022/01/26 13:55:46;;;;;;;13.70;5.65;;;;;;;2.94;81.08;99685.16;4483469;31;20088;-72
2022/01/26 13:58:25;;;;;;;11.85;4.90;;;;;;;2.87;81.56;99679.38;4482736;31;20114;-72
2022/01/26 14:00:59;;;;;;;13.93;5.53;;;;;;;2.98;81.25;99687.53;4477917;31;20092;-72
2022/01/26 14:03:27;;;;;;;13.02;5.30;;;;;;;2.94;81.49;99680.81;4478908;32;20168;-72
2022/01/26 14:05:55;;;;;;;14.60;4.78;;;;;;;2.89;81.40;99677.56;4477209;31;20494;-72
2022/01/26 14:08:22;;;;;;;14.60;6.47;;;;;;;2.85;81.44;99681.19;4484299;31;20103;-72
2022/01/26 14:10:50;;;;;;;13.68;5.60;;;;;;;2.78;81.38;99680.59;4483644;31;20101;-72
2022/01/26 14:13:21;;;;;;;14.25;5.18;;;;;;;2.79;81.26;99677.12;4478164;31;20092;-72
2022/01/26 14:15:51;;;;;;;9.65;4.70;;;;;;;2.82;80.59;99684.75;4487004;31;20122;-72